Weather at Tecnocopter S.A. Heliport

Public forecast

Using degrees Celsius for public forecast. Weather courtesy of forecast.io.

Closest aviation weather report (METAR) to Tecnocopter S.A. Heliport

Closest report is San Fernando Airport, 2.5 nm (4.6 km) NNE.

2024/05/28 00:00 (retrieved 11 minutes ago)

SADF 280000Z 20013KT 9999 FEW019 OVC029 10/06 Q1026

Closest aviation forecast (TAF) to Tecnocopter S.A. Heliport

Forecast is more than 6 hours old.

Closest forecast is Ingeniero Ambrosio Taravella Airport, 340.4 nm (630.4 km) WNW.

2024/05/27 18:00 (retrieved 6 hours ago)

TAF SACO 271700Z 2718/2818 14005KT 9999 FEW030 TX15/2818Z TN00/2811Z BECMG 2721/2800 VRB03KT CAVOK PROB40 TEMPO 2808/2811 5000 BR NSC BECMG 2812/2815 36010KT